首页
METAR-TAF:

METAR-TAF

机场 :

法兰克福-哈恩机场

Hahn, 德国

纬度: 49-57N, 经度: 007-16E, 海拔: 491米

当前天气观测

该预报发布于27分钟前的21:50 UTC
风速8节,风向
温度 20°C
湿度 83%
气压 1017 hPa
能见度10公里或以上
少量云层高于7000英尺, 积雨云.
小阵雨

METAR: EDFH 112150Z 10008KT 9999 -SHRA FEW070CB 20/17 Q1017 RETS

时间: 00:17 (22:17 UTC)

预报

该预报发布于2小时和12分钟前的20:05 UTC
预报有效从11日的 20点(UTC)到 12日的 18点(UTC)
风速8节,风向东转东南
能见度10公里或以上
1500米以下无云,无积雨云
几率 30% :
短暂存在
从 11日的 20点(UTC)到 11日的 22点(UTC)
风速15节,风向南转南东,有时为35节阵风
散云层高于6000英尺, 积雨云.
雷暴, 雨
几率 30% :
短暂存在
从 12日的 11点(UTC)到 12日的 17点(UTC)
风速20节,风向,有时为35节阵风
散云层高于6000英尺, 积雨云.
雷暴, 雨
短暂存在
从 12日的 15点(UTC)到 12日的 18点(UTC)
风速8节,风向

TAF: EDFH 112005Z 1120/1218 12008KT CAVOK PROB30 TEMPO 1120/1122 16015G35KT TSRA SCT060CB PROB30 TEMPO 1211/1217 18020G35KT TSRA SCT060CB TEMPO 1215/1218 18008KT

超过4000个机场的气象观测和天气预报(METAR&TAF报告)。

可查询的气象台以黄色和红色小点在地图上表示。

将鼠标移到小点上方,可查看气象台名称。

然后点击查看天气观测和预报。

如需切换地图:点击带黑十字的绿色按钮放大地图;点击带横线的绿色按钮缩小地图;或者点击绿色箭头查看邻近地区的地图。


METAR-TAF: